createdAt,value
2023-05-18T00:01:03.871Z,101079.43
2023-05-18T00:03:36.424Z,101078.05
2023-05-18T00:06:08.702Z,101073.59
2023-05-18T00:08:40.393Z,101076.33
2023-05-18T00:11:11.568Z,101076.15
2023-05-18T00:13:42.567Z,101076.65
2023-05-18T00:16:16.153Z,101076.98
2023-05-18T00:18:47.644Z,101079.04
2023-05-18T00:21:18.750Z,101081.26
2023-05-18T00:23:50.613Z,101084.65
2023-05-18T00:26:22.236Z,101083.95
2023-05-18T00:28:53.682Z,101084.64
2023-05-18T00:31:24.722Z,101085.84
2023-05-18T00:34:22.781Z,101088.05
2023-05-18T00:37:53.107Z,101088.21
2023-05-18T00:40:29.163Z,101085.65
2023-05-18T00:43:00.775Z,101085.95
2023-05-18T00:54:45.135Z,101092.79
2023-05-18T00:57:16.373Z,101100.60
2023-05-18T00:59:49.251Z,101109.31
2023-05-18T01:02:20.512Z,101109.83
2023-05-18T01:04:53.041Z,101108.80
2023-05-18T01:07:26.716Z,101109.14
2023-05-18T01:09:57.873Z,101116.14
2023-05-18T01:12:37.493Z,101118.52
2023-05-18T01:15:14.669Z,101119.53
2023-05-18T01:18:01.029Z,101118.19
2023-05-18T01:20:46.174Z,101114.77
2023-05-18T01:24:00.531Z,101117.67
2023-05-18T01:26:37.869Z,101114.23
2023-05-18T01:29:14.218Z,101116.45
2023-05-18T01:31:45.364Z,101120.03
2023-05-18T01:34:16.500Z,101123.10
2023-05-18T01:36:47.534Z,101124.61
2023-05-18T01:39:19.190Z,101124.41
2023-05-18T01:41:56.453Z,101124.05
2023-05-18T01:44:35.536Z,101121.98
2023-05-18T01:47:13.420Z,101126.73
2023-05-18T01:49:53.176Z,101123.46
2023-05-18T01:52:30.896Z,101125.66
2023-05-18T01:55:05.381Z,101127.53
2023-05-18T01:57:40.928Z,101121.22
2023-05-18T02:00:17.722Z,101123.91
2023-05-18T02:02:49.461Z,101126.95
2023-05-18T02:05:21.156Z,101128.13
2023-05-18T02:07:52.659Z,101130.51
2023-05-18T02:10:24.786Z,101135.95
2023-05-18T02:12:55.867Z,101141.04
2023-05-18T02:15:26.997Z,101142.05
2023-05-18T02:17:58.576Z,101150.05
2023-05-18T02:20:32.900Z,101146.98
2023-05-18T02:23:04.093Z,101149.02
2023-05-18T02:25:35.123Z,101145.08
2023-05-18T02:28:06.336Z,101148.45
2023-05-18T02:30:37.444Z,101150.15
2023-05-18T02:33:09.366Z,101146.54
2023-05-18T02:35:41.382Z,101150.95
2023-05-18T02:38:12.588Z,101151.94
2023-05-18T02:40:43.846Z,101156.52
2023-05-18T02:43:14.938Z,101161.10
2023-05-18T02:45:46.087Z,101156.64
2023-05-18T02:48:17.138Z,101156.92
2023-05-18T02:50:49.515Z,101158.95
2023-05-18T02:53:20.741Z,101158.58
2023-05-18T02:55:57.153Z,101161.30
2023-05-18T02:58:34.059Z,101160.26
2023-05-18T03:01:13.468Z,101163.33
2023-05-18T03:03:50.068Z,101165.70
2023-05-18T03:06:23.541Z,101169.12
2023-05-18T03:08:55.594Z,101166.91
2023-05-18T03:11:29.355Z,101171.31
2023-05-18T03:14:00.836Z,101175.20
2023-05-18T03:16:31.965Z,101179.98
2023-05-18T03:19:03.627Z,101181.70
2023-05-18T03:21:38.914Z,101185.12
2023-05-18T03:24:14.665Z,101190.06
2023-05-18T03:26:46.407Z,101192.45
2023-05-18T03:29:17.473Z,101191.64
2023-05-18T03:31:49.233Z,101191.86
2023-05-18T03:34:20.372Z,101191.89
2023-05-18T03:36:51.827Z,101195.00
2023-05-18T03:39:22.990Z,101197.39
2023-05-18T03:41:54.117Z,101200.16
2023-05-18T03:44:25.108Z,101203.42
2023-05-18T03:46:56.449Z,101204.14
2023-05-18T03:49:27.508Z,101204.85
2023-05-18T03:52:55.340Z,101210.00
2023-05-18T03:55:26.851Z,101213.58
2023-05-18T03:57:59.396Z,101220.42
2023-05-18T04:00:30.509Z,101225.21
2023-05-18T04:03:03.579Z,101222.84
2023-05-18T04:05:35.411Z,101218.23
2023-05-18T04:08:07.812Z,101221.31
2023-05-18T04:10:38.970Z,101222.16
2023-05-18T04:13:10.049Z,101226.77
2023-05-18T04:16:17.668Z,101225.60
2023-05-18T04:18:46.352Z,101226.79
2023-05-18T04:21:15.495Z,101231.94
2023-05-18T04:23:44.500Z,101234.34
2023-05-18T04:26:19.547Z,101230.59
2023-05-18T04:28:47.107Z,101235.77
2023-05-18T04:31:17.381Z,101240.06
2023-05-18T04:33:46.842Z,101240.43
2023-05-18T04:36:20.870Z,101245.58
2023-05-18T04:38:50.241Z,101249.18
2023-05-18T04:41:27.897Z,101249.52
2023-05-18T04:43:56.289Z,101247.69
2023-05-18T04:46:25.585Z,101249.90
2023-05-18T04:48:57.435Z,101251.80
2023-05-18T04:51:25.781Z,101250.94
2023-05-18T04:53:55.225Z,101252.31
2023-05-18T04:56:23.597Z,101256.08
2023-05-18T04:58:52.001Z,101257.46
2023-05-18T05:01:20.529Z,101259.36
2023-05-18T05:03:50.098Z,101259.23
2023-05-18T05:06:20.655Z,101258.59
2023-05-18T05:08:54.895Z,101261.20
2023-05-18T05:11:23.244Z,101260.92
2023-05-18T05:13:53.889Z,101265.61
2023-05-18T05:16:22.305Z,101261.35
2023-05-18T05:18:51.426Z,101260.73
2023-05-18T05:21:19.895Z,101266.89
2023-05-18T05:23:48.572Z,101269.16
2023-05-18T05:26:17.393Z,101269.71
2023-05-18T05:28:46.975Z,101271.46
2023-05-18T05:31:15.365Z,101268.59
2023-05-18T05:33:45.429Z,101269.15
2023-05-18T05:36:15.076Z,101271.40
2023-05-18T05:38:44.383Z,101271.46
2023-05-18T05:41:13.075Z,101273.05
2023-05-18T05:43:42.107Z,101280.14
2023-05-18T05:46:10.408Z,101279.16
2023-05-18T05:48:38.801Z,101283.80
2023-05-18T05:51:07.155Z,101284.69
2023-05-18T05:53:35.750Z,101283.70
2023-05-18T05:56:07.521Z,101281.85
2023-05-18T05:58:41.754Z,101283.96
2023-05-18T06:01:10.141Z,101281.95
2023-05-18T06:03:40.828Z,101285.94
2023-05-18T06:06:11.144Z,101287.49
2023-05-18T06:08:39.729Z,101288.56
2023-05-18T06:11:10.631Z,101284.84
2023-05-18T06:13:41.205Z,101284.34
2023-05-18T06:16:09.595Z,101288.48
2023-05-18T06:18:39.123Z,101291.77
2023-05-18T06:21:07.676Z,101294.54
2023-05-18T06:23:36.162Z,101294.40
2023-05-18T06:26:04.603Z,101293.70
2023-05-18T06:28:33.064Z,101293.68
2023-05-18T06:31:09.578Z,101292.81
2023-05-18T06:33:47.679Z,101295.38
2023-05-18T06:36:16.590Z,101295.02
2023-05-18T06:38:45.339Z,101294.85
2023-05-18T06:41:14.076Z,101295.17
2023-05-18T06:43:42.400Z,101297.73
2023-05-18T06:46:24.244Z,101301.63
2023-05-18T06:48:56.737Z,101298.88
2023-05-18T06:51:25.278Z,101303.33
2023-05-18T06:53:53.717Z,101302.78
2023-05-18T06:56:22.527Z,101309.46
2023-05-18T06:58:51.051Z,101305.16
2023-05-18T07:01:20.264Z,101308.58
2023-05-18T07:03:50.992Z,101307.35
2023-05-18T07:06:19.449Z,101309.07
2023-05-18T07:08:48.227Z,101308.89
2023-05-18T07:11:16.784Z,101311.27
2023-05-18T07:13:45.524Z,101310.73
2023-05-18T07:16:13.954Z,101315.35
2023-05-18T07:18:42.426Z,101317.07
2023-05-18T07:21:11.010Z,101316.04
2023-05-18T07:23:39.393Z,101317.06
2023-05-18T07:26:10.364Z,101319.09
2023-05-18T07:28:38.743Z,101322.52
2023-05-18T07:31:07.602Z,101320.43
2023-05-18T07:33:39.107Z,101326.40
2023-05-18T07:36:10.773Z,101329.95
2023-05-18T07:38:39.096Z,101330.38
2023-05-18T07:41:07.388Z,101328.05
2023-05-18T07:43:35.695Z,101333.80
2023-05-18T07:46:04.090Z,101333.85
2023-05-18T07:48:32.385Z,101334.23
2023-05-18T07:51:00.689Z,101332.02
2023-05-18T07:53:29.026Z,101332.73
2023-05-18T07:55:57.302Z,101331.36
2023-05-18T07:58:25.785Z,101334.48
2023-05-18T08:00:54.125Z,101335.67
2023-05-18T08:03:22.629Z,101334.79
2023-05-18T08:05:51.272Z,101341.17
2023-05-18T08:08:19.951Z,101340.98
2023-05-18T08:10:48.280Z,101340.45
2023-05-18T08:13:16.631Z,101340.10
2023-05-18T08:15:46.281Z,101341.36
2023-05-18T08:18:22.524Z,101342.83
2023-05-18T08:20:53.323Z,101348.00
2023-05-18T08:23:21.646Z,101347.17
2023-05-18T08:25:50.107Z,101343.05
2023-05-18T08:28:18.427Z,101340.95
2023-05-18T08:30:46.685Z,101343.50
2023-05-18T08:33:14.978Z,101343.14
2023-05-18T08:35:43.438Z,101350.19
2023-05-18T08:38:14.576Z,101351.58
2023-05-18T08:40:51.121Z,101352.89
2023-05-18T08:43:22.827Z,101351.89
2023-05-18T08:46:02.052Z,101352.76
2023-05-18T08:48:33.218Z,101356.55
2023-05-18T08:51:06.377Z,101353.47
2023-05-18T08:53:37.939Z,101351.42
2023-05-18T08:56:08.901Z,101348.54
2023-05-18T08:58:44.313Z,101348.56
2023-05-18T09:01:13.801Z,101349.23
2023-05-18T09:03:43.273Z,101346.95
2023-05-18T09:06:11.718Z,101353.09
2023-05-18T09:08:41.265Z,101350.59
2023-05-18T09:11:10.007Z,101353.02
2023-05-18T09:13:39.084Z,101354.45
2023-05-18T09:16:08.037Z,101353.52
2023-05-18T09:18:36.563Z,101352.35
2023-05-18T09:21:05.676Z,101353.45
2023-05-18T09:23:34.326Z,101352.48
2023-05-18T09:26:04.689Z,101353.89
2023-05-18T09:28:36.520Z,101355.78
2023-05-18T09:31:07.482Z,101356.79
2023-05-18T09:33:37.755Z,101357.20
2023-05-18T09:36:07.617Z,101356.22
2023-05-18T09:38:39.996Z,101354.86
2023-05-18T09:41:12.386Z,101353.55
2023-05-18T09:43:44.420Z,101355.05
2023-05-18T09:46:14.754Z,101356.36
2023-05-18T09:48:45.378Z,101355.18
2023-05-18T09:51:16.995Z,101355.34
2023-05-18T09:53:49.209Z,101359.29
2023-05-18T09:56:18.895Z,101362.83
2023-05-18T09:58:47.505Z,101363.45
2023-05-18T10:01:16.019Z,101366.99
2023-05-18T10:03:45.231Z,101364.34
2023-05-18T10:06:13.727Z,101367.38
2023-05-18T10:08:42.338Z,101362.16
2023-05-18T10:11:10.917Z,101355.58
2023-05-18T10:13:41.992Z,101353.95
2023-05-18T10:16:10.560Z,101354.87
2023-05-18T10:18:40.490Z,101356.51
2023-05-18T10:21:09.695Z,101353.66
2023-05-18T10:23:40.230Z,101355.88
2023-05-18T10:26:12.489Z,101354.93
2023-05-18T10:28:43.961Z,101347.02
2023-05-18T10:31:13.105Z,101349.26
2023-05-18T10:33:44.043Z,101350.98
2023-05-18T10:36:12.602Z,101346.13
2023-05-18T10:38:45.286Z,101347.19
2023-05-18T10:41:15.137Z,101347.74
2023-05-18T10:43:45.485Z,101345.38
2023-05-18T10:46:15.917Z,101345.21
2023-05-18T10:48:48.320Z,101347.11
2023-05-18T10:51:19.331Z,101347.48
2023-05-18T10:53:48.247Z,101346.39
2023-05-18T10:56:17.199Z,101347.85
2023-05-18T10:58:46.562Z,101342.83
2023-05-18T11:01:15.661Z,101343.35
2023-05-18T11:03:44.662Z,101343.98
2023-05-18T11:06:14.379Z,101342.52
2023-05-18T11:08:50.648Z,101337.98
2023-05-18T11:11:22.854Z,101337.56
2023-05-18T11:13:52.404Z,101341.08
2023-05-18T11:16:21.191Z,101338.31
2023-05-18T11:18:51.956Z,101336.27
2023-05-18T11:21:32.299Z,101336.73
2023-05-18T11:24:19.258Z,101338.05
2023-05-18T11:26:49.254Z,101334.35
2023-05-18T11:29:19.385Z,101336.80
2023-05-18T11:31:49.109Z,101339.48
2023-05-18T11:34:44.233Z,101336.55
2023-05-18T11:37:14.498Z,101333.28
2023-05-18T11:39:59.384Z,101331.25
2023-05-18T11:42:34.293Z,101329.59
2023-05-18T11:45:08.639Z,101331.71
2023-05-18T11:47:39.391Z,101332.52
2023-05-18T11:50:11.272Z,101332.77
2023-05-18T11:52:48.936Z,101331.05
2023-05-18T11:55:19.416Z,101334.81
2023-05-18T11:57:51.669Z,101333.81
2023-05-18T12:00:21.571Z,101335.88
2023-05-18T12:02:51.870Z,101334.85
2023-05-18T12:05:21.054Z,101336.14
2023-05-18T12:07:53.729Z,101336.38
2023-05-18T12:10:22.818Z,101342.69
2023-05-18T12:12:52.760Z,101347.16
2023-05-18T12:15:24.253Z,101344.99
2023-05-18T12:17:52.824Z,101345.63
2023-05-18T12:20:24.407Z,101343.50
2023-05-18T12:22:55.046Z,101344.40
2023-05-18T12:25:26.280Z,101344.36
2023-05-18T12:27:56.591Z,101336.20
2023-05-18T12:30:33.910Z,101339.89
2023-05-18T12:33:02.815Z,101341.39
2023-05-18T12:35:32.314Z,101344.83
2023-05-18T12:38:01.326Z,101344.82
2023-05-18T12:40:43.711Z,101347.91
2023-05-18T12:43:12.424Z,101343.70
2023-05-18T12:45:43.736Z,101341.95
2023-05-18T12:48:14.448Z,101344.95
2023-05-18T12:50:48.552Z,101346.61
2023-05-18T12:53:17.306Z,101349.66
2023-05-18T12:55:45.588Z,101347.34
2023-05-18T12:58:16.106Z,101345.10
2023-05-18T13:00:46.236Z,101348.97
2023-05-18T13:03:16.884Z,101350.89
2023-05-18T13:05:47.150Z,101351.80
2023-05-18T13:08:19.394Z,101351.98
2023-05-18T13:10:55.224Z,101350.89
2023-05-18T13:13:30.234Z,101348.77
2023-05-18T13:16:00.567Z,101346.77
2023-05-18T13:18:28.883Z,101346.29
2023-05-18T13:20:59.628Z,101343.23
2023-05-18T13:23:29.601Z,101343.81
2023-05-18T13:25:59.217Z,101344.00
2023-05-18T13:28:27.775Z,101341.73
2023-05-18T13:30:56.138Z,101341.05
2023-05-18T13:33:26.278Z,101342.80
2023-05-18T13:35:54.545Z,101343.85
2023-05-18T13:38:26.094Z,101334.00
2023-05-18T13:40:55.023Z,101336.95
2023-05-18T13:43:25.925Z,101336.92
2023-05-18T13:45:54.549Z,101335.75
2023-05-18T13:48:24.060Z,101337.89
2023-05-18T13:50:54.082Z,101340.88
2023-05-18T13:53:22.530Z,101342.00
2023-05-18T13:55:53.220Z,101335.63
2023-05-18T13:58:21.573Z,101335.86
2023-05-18T14:00:49.999Z,101340.61
2023-05-18T14:03:18.555Z,101338.97
2023-05-18T14:05:47.200Z,101339.21
2023-05-18T14:08:15.768Z,101343.23
2023-05-18T14:10:44.178Z,101343.30
2023-05-18T14:13:16.250Z,101344.07
2023-05-18T14:15:44.668Z,101346.09
2023-05-18T14:18:16.301Z,101342.27
2023-05-18T14:20:47.516Z,101338.05
2023-05-18T14:23:15.847Z,101338.98
2023-05-18T14:25:45.418Z,101335.64
2023-05-18T14:28:14.285Z,101337.95
2023-05-18T14:30:42.556Z,101333.90
2023-05-18T14:33:11.602Z,101333.43
2023-05-18T14:35:39.986Z,101335.55
2023-05-18T14:38:08.746Z,101336.61
2023-05-18T14:40:37.261Z,101337.70
2023-05-18T14:43:05.745Z,101337.59
2023-05-18T14:45:34.135Z,101337.09
2023-05-18T14:48:02.474Z,101338.16
2023-05-18T14:50:30.910Z,101338.77
2023-05-18T14:52:59.198Z,101339.56
2023-05-18T14:55:27.462Z,101339.30
2023-05-18T14:57:57.293Z,101339.36
2023-05-18T15:00:28.099Z,101341.16
2023-05-18T15:02:56.482Z,101343.45
2023-05-18T15:05:25.730Z,101340.05
2023-05-18T15:07:56.612Z,101341.30
2023-05-18T15:10:24.994Z,101342.35
2023-05-18T15:12:56.323Z,101343.27
2023-05-18T15:15:32.348Z,101342.30
2023-05-18T15:18:04.384Z,101340.26
2023-05-18T15:20:34.444Z,101341.85
2023-05-18T15:23:04.081Z,101339.98
2023-05-18T15:25:32.513Z,101339.48
2023-05-18T15:28:00.762Z,101340.67
2023-05-18T15:30:32.240Z,101339.63
2023-05-18T15:33:02.069Z,101340.48
2023-05-18T15:35:31.487Z,101343.08
2023-05-18T15:37:59.837Z,101342.38
2023-05-18T15:40:30.929Z,101344.27
2023-05-18T15:42:59.954Z,101345.83
2023-05-18T15:45:29.210Z,101344.97
2023-05-18T15:47:57.991Z,101343.77
2023-05-18T15:50:26.846Z,101341.23
2023-05-18T15:52:55.580Z,101341.10
2023-05-18T15:55:23.957Z,101346.29
2023-05-18T15:57:54.509Z,101342.16
2023-05-18T16:00:23.780Z,101348.02
2023-05-18T16:02:52.226Z,101346.45
2023-05-18T16:05:20.622Z,101346.15
2023-05-18T16:07:50.499Z,101344.80
2023-05-18T16:10:18.799Z,101343.48
2023-05-18T16:12:47.140Z,101349.33
2023-05-18T16:15:15.712Z,101347.48
2023-05-18T16:17:44.009Z,101347.35
2023-05-18T16:20:13.265Z,101348.61
2023-05-18T16:22:41.651Z,101348.13
2023-05-18T16:25:10.668Z,101344.77
2023-05-18T16:27:39.065Z,101347.70
2023-05-18T16:30:10.050Z,101345.64
2023-05-18T16:32:38.533Z,101343.77
2023-05-18T16:35:08.524Z,101339.66
2023-05-18T16:37:44.154Z,101343.98
2023-05-18T16:40:13.439Z,101339.01
2023-05-18T16:42:41.839Z,101342.44
2023-05-18T16:45:11.079Z,101340.55
2023-05-18T16:47:40.053Z,101344.67
2023-05-18T16:50:10.425Z,101345.39
2023-05-18T16:52:38.645Z,101351.58
2023-05-18T16:55:08.915Z,101350.76
2023-05-18T16:57:39.053Z,101352.32
2023-05-18T17:00:13.613Z,101352.00
2023-05-18T17:02:42.344Z,101353.91
2023-05-18T17:05:11.572Z,101357.54
2023-05-18T17:07:40.040Z,101357.21
2023-05-18T17:10:10.303Z,101359.45
2023-05-18T17:12:39.141Z,101363.25
2023-05-18T17:15:12.155Z,101363.09
2023-05-18T17:17:42.165Z,101364.48
2023-05-18T17:20:12.352Z,101364.50
2023-05-18T17:22:40.600Z,101364.50
2023-05-18T17:25:10.214Z,101366.93
2023-05-18T17:27:38.497Z,101365.73
2023-05-18T17:30:09.459Z,101369.36
2023-05-18T17:32:39.059Z,101372.48
2023-05-18T17:35:10.201Z,101370.06
2023-05-18T17:37:40.691Z,101371.98
2023-05-18T17:40:11.203Z,101372.30
2023-05-18T17:42:40.124Z,101374.02
2023-05-18T17:45:10.778Z,101373.32
2023-05-18T17:47:42.019Z,101373.48
2023-05-18T17:50:12.098Z,101375.38
2023-05-18T17:52:48.167Z,101379.34
2023-05-18T17:55:19.540Z,101380.55
2023-05-18T17:57:51.936Z,101380.90
2023-05-18T18:00:22.173Z,101380.22
2023-05-18T18:02:54.835Z,101380.91
2023-05-18T18:05:23.600Z,101380.92
2023-05-18T18:07:53.488Z,101384.54
2023-05-18T18:10:23.400Z,101386.60
2023-05-18T18:12:51.701Z,101386.77
2023-05-18T18:15:26.855Z,101387.14
2023-05-18T18:17:56.093Z,101393.83
2023-05-18T18:20:24.592Z,101389.38
2023-05-18T18:22:53.075Z,101389.91
2023-05-18T18:25:21.832Z,101392.16
2023-05-18T18:27:50.068Z,101389.60
2023-05-18T18:30:20.171Z,101391.34
2023-05-18T18:32:49.694Z,101390.33
2023-05-18T18:35:18.975Z,101390.20
2023-05-18T18:37:47.598Z,101392.45
2023-05-18T18:40:17.539Z,101393.86
2023-05-18T18:42:47.337Z,101392.67
2023-05-18T18:45:16.000Z,101393.39
2023-05-18T18:47:46.137Z,101396.84
2023-05-18T18:50:18.115Z,101398.92
2023-05-18T18:52:46.846Z,101399.45
2023-05-18T18:55:18.507Z,101401.19
2023-05-18T18:57:47.330Z,101404.29
2023-05-18T19:00:19.660Z,101405.66
2023-05-18T19:02:48.287Z,101404.83
2023-05-18T19:05:21.206Z,101406.37
2023-05-18T19:07:49.880Z,101405.17
2023-05-18T19:10:18.169Z,101407.94
2023-05-18T19:12:48.005Z,101404.84
2023-05-18T19:15:16.573Z,101405.70
2023-05-18T19:17:45.910Z,101407.77
2023-05-18T19:20:14.401Z,101410.52
2023-05-18T19:22:42.652Z,101410.37
2023-05-18T19:25:11.841Z,101411.92
2023-05-18T19:27:41.007Z,101409.69
2023-05-18T19:30:12.634Z,101410.72
2023-05-18T19:32:41.238Z,101413.82
2023-05-18T19:35:09.746Z,101418.27
2023-05-18T19:37:38.330Z,101416.40
2023-05-18T19:40:07.930Z,101413.64
2023-05-18T19:42:36.449Z,101414.34
2023-05-18T19:45:06.159Z,101416.39
2023-05-18T19:47:35.349Z,101415.88
2023-05-18T19:50:04.078Z,101415.71
2023-05-18T19:52:32.875Z,101416.06
2023-05-18T19:55:02.596Z,101417.43
2023-05-18T19:57:32.520Z,101420.02
2023-05-18T20:00:02.454Z,101420.36
2023-05-18T20:02:41.432Z,101421.91
2023-05-18T20:05:12.047Z,101422.08
2023-05-18T20:07:40.469Z,101421.56
2023-05-18T20:10:08.845Z,101423.80
2023-05-18T20:12:37.163Z,101428.78
2023-05-18T20:15:08.174Z,101428.78
2023-05-18T20:17:37.067Z,101428.77
2023-05-18T20:20:07.581Z,101426.55
2023-05-18T20:22:36.031Z,101430.86
2023-05-18T20:25:05.889Z,101435.17
2023-05-18T20:27:34.571Z,101437.58
2023-05-18T20:30:03.006Z,101439.83
2023-05-18T20:32:32.708Z,101440.52
2023-05-18T20:35:01.880Z,101443.27
2023-05-18T20:37:30.188Z,101443.79
2023-05-18T20:40:00.980Z,101448.08
2023-05-18T20:42:38.051Z,101446.55
2023-05-18T20:45:08.376Z,101449.29
2023-05-18T20:47:37.012Z,101447.90
2023-05-18T20:50:08.513Z,101447.91
2023-05-18T20:52:38.700Z,101448.94
2023-05-18T20:55:08.968Z,101452.21
2023-05-18T20:57:39.425Z,101451.36
2023-05-18T21:00:11.993Z,101455.48
2023-05-18T21:02:44.373Z,101452.05
2023-05-18T21:05:13.949Z,101450.66
2023-05-18T21:07:43.201Z,101453.42
2023-05-18T21:10:12.208Z,101451.35
2023-05-18T21:12:40.621Z,101456.84
2023-05-18T21:15:10.935Z,101461.98
2023-05-18T21:17:39.714Z,101464.56
2023-05-18T21:20:10.515Z,101464.73
2023-05-18T21:22:39.017Z,101465.08
2023-05-18T21:25:08.913Z,101466.80
2023-05-18T21:27:37.988Z,101466.45
2023-05-18T21:30:10.091Z,101466.62
2023-05-18T21:32:40.040Z,101470.06
2023-05-18T21:35:08.976Z,101467.83
2023-05-18T21:37:38.060Z,101468.88
2023-05-18T21:40:09.522Z,101465.77
2023-05-18T21:42:44.405Z,101471.27
2023-05-18T21:45:17.617Z,101476.95
2023-05-18T21:47:46.347Z,101476.27
2023-05-18T21:50:14.598Z,101474.38
2023-05-18T21:52:43.080Z,101479.70
2023-05-18T21:55:12.213Z,101482.95
2023-05-18T21:57:40.876Z,101481.41
2023-05-18T22:00:13.211Z,101484.84
2023-05-18T22:02:41.480Z,101486.73
2023-05-18T22:05:10.838Z,101488.63
2023-05-18T22:07:39.542Z,101487.59
2023-05-18T22:10:08.565Z,101490.52
2023-05-18T22:12:37.329Z,101487.42
2023-05-18T22:15:09.827Z,101487.75
2023-05-18T22:17:38.773Z,101486.91
2023-05-18T22:20:10.565Z,101485.70
2023-05-18T22:22:39.682Z,101489.66
2023-05-18T22:25:09.563Z,101489.49
2023-05-18T22:27:38.053Z,101493.61
2023-05-18T22:30:08.095Z,101493.61
2023-05-18T22:32:36.581Z,101495.34
2023-05-18T22:35:06.671Z,101496.02
2023-05-18T22:37:35.774Z,101497.40
2023-05-18T22:40:05.938Z,101496.55
2023-05-18T22:42:34.908Z,101494.83
2023-05-18T22:45:03.773Z,101498.10
2023-05-18T22:47:33.236Z,101496.37
2023-05-18T22:50:01.475Z,101494.82
2023-05-18T22:52:30.259Z,101502.88
2023-05-18T22:54:58.560Z,101497.73
2023-05-18T22:57:26.836Z,101500.13
2023-05-18T22:59:55.099Z,101498.05
2023-05-18T23:02:23.381Z,101498.23
2023-05-18T23:04:51.723Z,101500.45
2023-05-18T23:07:21.560Z,101499.08
2023-05-18T23:09:51.690Z,101497.34
2023-05-18T23:12:20.110Z,101496.98
2023-05-18T23:14:49.264Z,101498.34
2023-05-18T23:17:18.227Z,101494.54
2023-05-18T23:19:47.762Z,101495.56
2023-05-18T23:22:16.173Z,101495.72
2023-05-18T23:24:45.423Z,101495.35
2023-05-18T23:27:13.656Z,101494.63
2023-05-18T23:29:42.096Z,101500.11
2023-05-18T23:32:10.385Z,101494.63
2023-05-18T23:34:39.515Z,101492.58
2023-05-18T23:37:10.030Z,101496.69
2023-05-18T23:39:45.311Z,101499.76
2023-05-18T23:42:14.741Z,101498.91
2023-05-18T23:44:45.195Z,101501.48
2023-05-18T23:47:15.902Z,101500.08
2023-05-18T23:49:45.408Z,101498.20
2023-05-18T23:52:14.603Z,101501.27
2023-05-18T23:54:45.034Z,101498.36
2023-05-18T23:57:14.343Z,101497.48
2023-05-18T23:59:42.863Z,101492.87
